Time;durP1;ratioP1;P1;durP2;ratioP2;P2;SDS_P1;SDS_P2;PMS_P1;PMS_P2;Temp;Humidity;BMP_temperature;BMP_pressure;BME280_temperature;BME280_humidity;BME280_pressure;Samples;Min_cycle;Max_cycle;Signal;HPM_P1;HPM_P2
2023/12/01 00:02:24;;;;;;;17.93;8.77;;;1.60;99.90;;;-0.56;100.00;98669.63;10469875;27;96681;-87
2023/12/01 00:07:28;;;;;;;17.37;7.50;;;1.50;99.90;;;-0.55;100.00;98666.06;10471130;27;96665;-87
2023/12/01 00:12:31;;;;;;;24.07;9.83;;;1.50;99.90;;;-0.56;100.00;98673.06;10472295;27;96517;-87
2023/12/01 00:17:35;;;;;;;21.73;10.33;;;1.50;99.90;;;-0.56;100.00;98674.84;10440958;27;97760;-87
2023/12/01 00:22:39;;;;;;;24.30;9.67;;;1.50;99.90;;;-0.56;100.00;98688.72;10429184;27;96781;-87
2023/12/01 00:27:43;;;;;;;17.03;7.77;;;1.50;99.90;;;-0.54;100.00;98717.28;10461756;27;98142;-88
2023/12/01 00:32:47;;;;;;;25.30;8.87;;;1.50;99.90;;;-0.60;100.00;98695.19;10448953;27;96989;-87
2023/12/01 00:37:51;;;;;;;21.50;8.97;;;1.50;99.90;;;-0.53;100.00;98718.94;10471052;27;96562;-88
2023/12/01 00:42:55;;;;;;;19.50;7.33;;;1.60;99.90;;;-0.60;100.00;98707.38;10485532;27;97869;-88
2023/12/01 00:47:59;;;;;;;19.53;8.00;;;1.50;99.90;;;-0.53;100.00;98718.94;10458138;27;96493;-87
2023/12/01 00:53:03;;;;;;;15.57;7.23;;;1.60;99.90;;;-0.59;100.00;98712.47;10451968;27;96741;-88
2023/12/01 00:58:07;;;;;;;13.23;6.10;;;1.60;99.90;;;-0.53;100.00;98711.13;10450810;27;96457;-88
2023/12/01 01:03:11;;;;;;;15.20;6.80;;;1.60;99.90;;;-0.51;100.00;98727.47;10466636;27;96547;-88
2023/12/01 01:08:15;;;;;;;15.80;6.40;;;1.60;99.90;;;-0.53;100.00;98728.56;10470171;27;96519;-88
2023/12/01 01:13:19;;;;;;;15.13;6.17;;;1.60;99.90;;;-0.52;100.00;98722.38;10445472;27;97597;-90
2023/12/01 01:18:23;;;;;;;14.53;6.60;;;1.60;99.90;;;-0.52;100.00;98720.59;10455795;27;96588;-88
2023/12/01 01:23:27;;;;;;;14.10;6.77;;;1.60;99.90;;;-0.53;100.00;98710.31;10447897;27;96578;-87
2023/12/01 01:28:31;;;;;;;13.30;7.10;;;1.60;99.90;;;-0.52;100.00;98706.72;10455376;27;97011;-88
2023/12/01 01:33:36;;;;;;;16.93;7.90;;;1.60;99.90;;;-0.55;100.00;98713.03;10498807;27;96516;-88
2023/12/01 01:38:40;;;;;;;12.93;6.33;;;1.60;99.90;;;-0.57;100.00;98704.50;10489455;27;96647;-87
2023/12/01 01:43:44;;;;;;;12.20;6.67;;;1.50;99.90;;;-0.58;100.00;98714.13;10441482;27;97552;-88
2023/12/01 01:48:48;;;;;;;14.53;6.87;;;1.50;99.90;;;-0.64;100.00;98706.84;10456115;27;98000;-88
2023/12/01 01:53:52;;;;;;;17.60;7.83;;;1.50;99.90;;;-0.58;100.00;98713.31;10487128;27;96464;-88
2023/12/01 01:58:56;;;;;;;22.50;8.57;;;1.60;99.90;;;-0.56;100.00;98706.16;10474965;27;97569;-89
2023/12/01 02:04:00;;;;;;;24.90;9.03;;;1.50;99.90;;;-0.57;100.00;98705.34;10479909;27;96610;-88
2023/12/01 02:09:06;;;;;;;19.57;8.70;;;1.50;99.90;;;-0.58;100.00;98708.91;10454629;27;96576;-88
2023/12/01 02:14:13;;;;;;;25.30;9.70;;;1.50;99.90;;;-0.57;100.00;98720.16;10451330;27;96507;-88
2023/12/01 02:19:17;;;;;;;19.67;7.73;;;1.50;99.90;;;-0.60;100.00;98712.59;10454140;27;96473;-88
2023/12/01 02:24:21;;;;;;;21.37;9.53;;;1.50;99.90;;;-0.59;100.00;98722.09;10440357;27;96541;-88
2023/12/01 02:29:24;;;;;;;25.00;9.30;;;1.50;99.90;;;-0.58;100.00;98723.75;10451214;27;96695;-89
2023/12/01 02:34:28;;;;;;;18.93;7.67;;;1.50;99.90;;;-0.57;100.00;98720.16;10447437;27;97054;-89
2023/12/01 02:39:31;;;;;;;23.73;8.37;;;1.50;99.90;;;-0.60;100.00;98726.50;10484460;27;96631;-88
2023/12/01 02:44:35;;;;;;;19.00;7.70;;;1.50;99.90;;;-0.59;100.00;98722.09;10482600;27;96789;-89
2023/12/01 02:49:39;;;;;;;18.57;8.77;;;1.50;99.90;;;-0.57;100.00;98736.66;10470679;27;97225;-88
2023/12/01 02:54:42;;;;;;;18.53;7.63;;;1.50;99.90;;;-0.57;100.00;98741.03;10472156;27;96537;-88
2023/12/01 02:59:46;;;;;;;13.40;6.13;;;1.50;99.90;;;-0.61;100.00;98729.22;10454977;27;96452;-88
2023/12/01 03:04:50;;;;;;;17.63;6.50;;;1.50;99.90;;;-0.56;100.00;98727.84;10486329;27;96573;-88
2023/12/01 03:09:53;;;;;;;22.53;9.73;;;1.50;99.90;;;-0.58;100.00;98708.09;10474484;27;96805;-88
2023/12/01 03:14:58;;;;;;;18.53;7.80;;;1.50;99.90;;;-0.58;100.00;98702.88;10479795;27;96468;-90
2023/12/01 03:20:14;;;;;;;24.70;8.87;;;1.50;99.90;;;-0.60;100.00;98713.44;10466146;27;96601;-88
2023/12/01 03:25:18;;;;;;;20.70;7.47;;;1.50;99.90;;;-0.62;100.00;98733.59;10490609;27;96445;-89
2023/12/01 03:30:22;;;;;;;20.77;6.47;;;1.50;99.90;;;-0.63;100.00;98726.75;10458599;27;96730;-88
2023/12/01 03:35:26;;;;;;;43.93;12.50;;;1.40;99.90;;;-0.66;100.00;98741.81;10470390;27;96974;-88
2023/12/01 03:40:30;;;;;;;21.87;8.20;;;1.40;99.90;;;-0.62;100.00;98738.00;10446781;27;96554;-88
2023/12/01 03:45:33;;;;;;;49.43;14.60;;;1.40;99.90;;;-0.61;100.00;98740.47;10482605;27;97527;-88
2023/12/01 03:50:37;;;;;;;31.17;9.67;;;1.40;99.90;;;-0.60;100.00;98723.03;10501110;27;98107;-88
2023/12/01 03:55:42;;;;;;;21.43;7.67;;;1.40;99.90;;;-0.58;100.00;98740.22;10451223;27;96483;-87
2023/12/01 04:00:45;;;;;;;23.20;7.70;;;1.50;99.90;;;-0.61;100.00;98727.41;10434732;27;96833;-88
2023/12/01 04:05:50;;;;;;;23.10;8.97;;;1.50;99.90;;;-0.56;100.00;98722.63;10472737;27;97114;-88
2023/12/01 04:10:55;;;;;;;33.00;9.77;;;1.50;99.90;;;-0.58;100.00;98714.13;10487195;27;97896;-88
2023/12/01 04:15:59;;;;;;;34.13;10.10;;;1.50;99.90;;;-0.62;100.00;98711.91;10437089;27;97270;-87
2023/12/01 04:21:08;;;;;;;27.07;8.97;;;1.50;99.90;;;-0.57;100.00;98709.72;10476767;27;96576;-87
2023/12/01 04:26:12;;;;;;;47.83;15.07;;;1.50;99.90;;;-0.63;100.00;98705.88;10466201;27;96583;-87
2023/12/01 04:31:16;;;;;;;30.47;9.47;;;1.50;99.90;;;-0.57;100.00;98704.50;10458915;27;96448;-87
2023/12/01 04:36:19;;;;;;;27.47;7.70;;;1.50;99.90;;;-0.59;100.00;98699.44;10476137;27;98036;-88
2023/12/01 04:41:23;;;;;;;29.73;9.07;;;1.50;99.90;;;-0.62;100.00;98701.47;10448423;27;96655;-87
2023/12/01 04:46:27;;;;;;;36.70;13.30;;;1.50;99.90;;;-0.61;100.00;98706.56;10453470;27;97969;-87
2023/12/01 04:51:30;;;;;;;37.13;12.43;;;1.50;99.90;;;-0.58;100.00;98702.88;10470537;27;96630;-87
2023/12/01 04:56:34;;;;;;;26.53;8.63;;;1.50;99.90;;;-0.64;100.00;98706.00;10465231;27;96436;-88
2023/12/01 05:01:40;;;;;;;18.83;8.47;;;1.50;99.90;;;-0.59;100.00;98711.66;10464560;27;96531;-88
2023/12/01 05:06:43;;;;;;;24.67;7.53;;;1.50;99.90;;;-0.59;100.00;98709.06;10475811;27;96950;-87
2023/12/01 05:11:48;;;;;;;25.67;9.50;;;1.50;99.90;;;-0.59;100.00;98702.03;10490440;27;96615;-88
2023/12/01 05:16:52;;;;;;;23.47;7.97;;;1.50;99.90;;;-0.57;100.00;98717.56;10464627;27;96668;-88
2023/12/01 05:21:55;;;;;;;23.17;7.53;;;1.50;99.90;;;-0.57;100.00;98715.78;10455985;27;96666;-88
2023/12/01 05:27:07;;;;;;;22.03;8.40;;;1.50;99.90;;;-0.57;100.00;98726.22;10492074;27;97849;-88
2023/12/01 05:32:12;;;;;;;20.57;7.17;;;1.50;99.90;;;-0.56;100.00;98721.81;10477129;27;97391;-88
2023/12/01 05:37:16;;;;;;;22.80;6.70;;;1.50;99.90;;;-0.56;100.00;98722.63;10483188;27;96486;-88
2023/12/01 05:42:20;;;;;;;24.17;7.77;;;1.50;99.90;;;-0.55;100.00;98733.91;10465552;27;96654;-87
2023/12/01 05:47:24;;;;;;;33.47;8.63;;;1.50;99.90;;;-0.56;100.00;98727.03;10454384;27;98722;-86
2023/12/01 05:52:27;;;;;;;23.57;8.13;;;1.50;99.90;;;-0.57;100.00;98735.81;10454537;27;98337;-87
2023/12/01 05:57:31;;;;;;;21.37;7.67;;;1.50;99.90;;;-0.59;100.00;98729.91;10475263;27;97173;-87
2023/12/01 06:02:35;;;;;;;29.30;10.77;;;1.50;99.90;;;-0.58;100.00;98728.97;10480516;27;96476;-93
2023/12/01 06:07:44;;;;;;;32.03;8.60;;;1.40;99.90;;;-0.57;100.00;98721.00;10462820;27;96634;-94
2023/12/01 06:12:48;;;;;;;23.20;8.53;;;1.40;99.90;;;-0.57;100.00;98728.00;10467386;27;96523;-92
2023/12/01 06:17:52;;;;;;;21.40;7.60;;;1.40;99.90;;;-0.60;100.00;98726.50;10463842;27;96551;-93
2023/12/01 06:23:05;;;;;;;19.43;6.37;;;1.50;99.90;;;-0.56;100.00;98733.06;10453764;27;96506;-93
2023/12/01 06:28:10;;;;;;;18.13;6.77;;;1.50;99.90;;;-0.54;100.00;98753.81;10484846;27;96686;-93
2023/12/01 06:33:14;;;;;;;19.03;6.23;;;1.50;99.90;;;-0.58;100.00;98734.19;10474618;27;96482;-94
2023/12/01 06:38:18;;;;;;;18.53;6.10;;;1.50;99.90;;;-0.48;100.00;98739.41;10473283;27;96557;-93
2023/12/01 06:43:22;;;;;;;23.07;7.13;;;1.60;99.90;;;-0.47;100.00;98746.31;10491798;27;96517;-94
2023/12/01 06:48:26;;;;;;;26.00;9.77;;;1.60;99.90;;;-0.45;100.00;98758.25;10465398;27;96433;-93
2023/12/01 06:53:30;;;;;;;35.87;13.27;;;1.70;99.90;;;-0.41;100.00;98764.03;10459593;27;96652;-93
2023/12/01 06:58:34;;;;;;;21.40;8.60;;;1.70;99.90;;;-0.40;100.00;98763.91;10460826;27;96624;-93
2023/12/01 07:03:39;;;;;;;21.97;9.47;;;1.70;99.90;;;-0.42;100.00;98765.81;10478403;27;97095;-93
2023/12/01 07:08:42;;;;;;;36.50;13.73;;;1.70;99.90;;;-0.40;100.00;98781.34;10486727;27;96526;-93
2023/12/01 07:13:47;;;;;;;41.63;14.67;;;1.60;99.90;;;-0.43;100.00;98785.03;10489375;27;96602;-93
2023/12/01 07:18:51;;;;;;;30.03;12.73;;;1.60;99.90;;;-0.42;100.00;98776.25;10470886;27;96705;-93
2023/12/01 07:23:54;;;;;;;34.57;10.73;;;1.60;99.90;;;-0.40;100.00;98790.00;10471747;27;96471;-93
2023/12/01 07:29:01;;;;;;;30.20;9.97;;;1.60;99.90;;;-0.40;100.00;98778.72;10486698;27;96455;-92
2023/12/01 07:34:05;;;;;;;39.70;14.27;;;1.70;99.90;;;-0.40;100.00;98787.38;10465799;27;96564;-92
2023/12/01 07:39:09;;;;;;;41.63;14.40;;;1.70;99.90;;;-0.39;100.00;98781.19;10452447;27;97344;-92
2023/12/01 07:44:13;;;;;;;29.83;11.33;;;1.70;99.90;;;-0.32;100.00;98781.50;10461251;27;97726;-94
2023/12/01 07:49:16;;;;;;;28.10;11.90;;;1.80;99.90;;;-0.29;100.00;98776.03;10465289;27;96750;-93
2023/12/01 07:54:20;;;;;;;20.00;8.83;;;1.80;99.90;;;-0.28;100.00;98786.31;10479201;27;96677;-95
2023/12/01 07:59:24;;;;;;;28.10;11.17;;;1.90;99.90;;;-0.23;100.00;98805.97;10452166;27;97155;-93
2023/12/01 08:04:30;;;;;;;24.80;9.60;;;1.90;99.90;;;-0.24;100.00;98805.16;10470381;27;97203;-96
2023/12/01 08:09:34;;;;;;;30.77;13.30;;;1.90;99.90;;;-0.22;100.00;98826.72;10457015;27;96911;-94
2023/12/01 08:14:39;;;;;;;25.33;11.57;;;1.90;99.90;;;-0.22;100.00;98826.72;10455668;27;97223;-95
2023/12/01 08:19:43;;;;;;;28.87;12.30;;;1.90;99.90;;;-0.19;100.00;98843.91;10448023;27;96446;-95
2023/12/01 08:24:46;;;;;;;28.17;11.70;;;1.90;99.90;;;-0.17;100.00;98826.34;10448423;27;96581;-94
2023/12/01 08:29:51;;;;;;;26.33;12.40;;;1.90;99.90;;;-0.14;100.00;98802.56;10439497;27;96559;-95
2023/12/01 08:34:54;;;;;;;29.37;11.90;;;2.00;99.90;;;-0.08;100.00;98786.34;10455190;27;96595;-94
2023/12/01 08:39:58;;;;;;;37.10;13.97;;;2.00;99.90;;;-0.06;100.00;98798.34;10484560;27;96432;-93
2023/12/01 08:45:03;;;;;;;33.77;15.20;;;2.10;99.90;;;-0.03;100.00;98792.00;10489358;27;96421;-94
2023/12/01 08:50:07;;;;;;;29.00;11.77;;;2.10;99.90;;;0.00;100.00;98802.19;10492477;27;96497;-95
2023/12/01 08:55:13;;;;;;;33.97;13.03;;;2.20;99.90;;;0.01;100.00;98800.41;10451990;27;96905;-95
2023/12/01 09:00:20;;;;;;;31.70;12.47;;;2.20;99.90;;;-0.02;100.00;98798.88;10466047;27;96821;-94
2023/12/01 09:05:27;;;;;;;33.17;13.20;;;2.10;99.90;;;-0.03;100.00;98807.66;10464321;27;96926;-94
2023/12/01 09:10:31;;;;;;;25.33;10.33;;;2.20;99.90;;;-0.01;100.00;98816.19;10447122;27;97902;-95
2023/12/01 09:15:34;;;;;;;49.97;17.20;;;2.20;99.90;;;-0.03;100.00;98818.13;10464037;27;96586;-92
2023/12/01 09:20:40;;;;;;;33.63;12.50;;;2.20;99.90;;;-0.01;100.00;98816.19;10462066;27;96546;-95
2023/12/01 09:25:44;;;;;;;31.87;12.10;;;2.10;99.90;;;0.01;100.00;98821.28;10505193;27;97073;-95
2023/12/01 09:30:48;;;;;;;26.00;12.77;;;2.10;99.90;;;0.04;100.00;98824.44;10475700;27;96507;-95
2023/12/01 09:35:53;;;;;;;24.40;10.23;;;2.20;99.90;;;0.07;100.00;98813.75;10470002;27;98252;-95
2023/12/01 09:41:03;;;;;;;27.67;11.40;;;2.20;99.90;;;0.11;100.00;98799.44;10474924;27;96522;-95
2023/12/01 09:46:07;;;;;;;24.50;11.00;;;2.30;99.90;;;0.17;100.00;98791.06;10435115;27;96563;-94
2023/12/01 09:51:11;;;;;;;21.83;10.57;;;2.40;99.90;;;0.21;100.00;98789.00;10474632;27;96528;-94
2023/12/01 09:56:16;;;;;;;28.67;12.03;;;2.40;99.90;;;0.23;100.00;98766.16;10461452;27;96804;-95
2023/12/01 10:01:21;;;;;;;20.97;9.97;;;2.50;99.90;;;0.31;100.00;98752.44;10478063;27;96607;-95
2023/12/01 10:06:26;;;;;;;20.60;11.17;;;2.50;99.90;;;0.34;100.00;98757.38;10496463;27;96519;-95
2023/12/01 10:11:30;;;;;;;21.23;9.20;;;2.50;99.90;;;0.34;100.00;98741.69;10500011;27;96527;-95
2023/12/01 10:16:36;;;;;;;29.00;11.80;;;2.60;99.90;;;0.36;100.00;98768.50;10469928;27;96482;-95
2023/12/01 10:21:49;;;;;;;25.03;11.20;;;2.60;99.90;;;0.39;100.00;98756.00;10465212;27;96610;-95
2023/12/01 10:26:56;;;;;;;34.07;13.43;;;2.60;99.90;;;0.39;100.00;98750.78;10453762;27;97215;-95
2023/12/01 10:32:11;;;;;;;31.80;13.30;;;2.60;99.90;;;0.44;100.00;98727.66;10451966;27;96545;-95
2023/12/01 10:37:15;;;;;;;22.60;10.40;;;2.60;99.90;;;0.50;100.00;98734.13;10454368;27;96602;-94
2023/12/01 10:42:21;;;;;;;31.63;13.07;;;2.70;99.90;;;0.53;100.00;98733.84;10484094;27;97070;-95
2023/12/01 10:47:25;;;;;;;34.67;14.90;;;2.70;99.90;;;0.56;100.00;98724.91;10436336;27;97130;-95
2023/12/01 10:52:34;;;;;;;44.10;18.97;;;2.70;99.90;;;0.62;100.00;98717.31;10463340;27;96614;-94
2023/12/01 10:57:40;;;;;;;40.77;15.93;;;2.80;99.90;;;0.69;100.00;98714.97;10485437;27;96546;-95
2023/12/01 11:02:44;;;;;;;41.50;17.33;;;2.80;99.90;;;0.70;100.00;98703.53;10470943;27;97160;-95
2023/12/01 11:08:03;;;;;;;28.07;11.57;;;2.90;99.90;;;0.73;100.00;98698.03;10470768;27;96542;-95
2023/12/01 11:13:36;;;;;;;30.40;12.87;;;2.90;99.90;;;0.72;100.00;98699.81;10498940;27;97862;-95
2023/12/01 11:18:46;;;;;;;34.13;14.67;;;2.90;99.90;;;0.70;100.00;98706.97;10471719;27;96946;-95
2023/12/01 11:23:50;;;;;;;32.20;13.80;;;2.90;99.90;;;0.72;100.00;98709.44;10482363;27;98369;-94
2023/12/01 11:29:09;;;;;;;44.50;17.87;;;2.90;99.90;;;0.76;100.00;98708.19;10509861;27;96478;-94
2023/12/01 11:34:15;;;;;;;36.70;14.43;;;2.90;99.90;;;0.72;100.00;98717.28;10462445;27;96957;-94
2023/12/01 11:39:29;;;;;;;30.00;11.93;;;2.90;99.90;;;0.68;100.00;98708.09;10471611;27;98047;-94
2023/12/01 11:44:40;;;;;;;19.93;9.30;;;2.80;99.90;;;0.63;100.00;98708.50;10463183;27;96895;-93
2023/12/01 11:49:45;;;;;;;40.43;13.97;;;2.70;99.90;;;0.66;100.00;98705.63;10463198;27;96740;-92
2023/12/01 11:54:50;;;;;;;29.70;11.87;;;2.70;99.90;;;0.68;100.00;98703.69;10448254;27;96881;-94
2023/12/01 11:59:56;;;;;;;25.90;12.13;;;2.70;99.90;;;0.71;100.00;98706.00;10437870;27;97154;-95
2023/12/01 12:05:05;;;;;;;26.63;12.67;;;2.80;99.90;;;0.74;100.00;98697.88;10445258;27;96604;-95
2023/12/01 12:10:14;;;;;;;33.40;16.43;;;2.90;99.90;;;0.79;100.00;98702.69;10464447;27;97238;-92
2023/12/01 12:15:19;;;;;;;26.17;12.87;;;2.90;99.90;;;0.79;100.00;98690.44;10506210;27;96554;-90
2023/12/01 12:20:23;;;;;;;25.03;13.43;;;2.90;99.90;;;0.80;100.00;98681.63;10468142;27;96605;-92
2023/12/01 12:25:37;;;;;;;19.40;9.60;;;2.90;99.90;;;0.82;100.00;98667.59;10464467;27;97241;-96
2023/12/01 12:30:41;;;;;;;30.27;15.23;;;2.90;99.90;;;0.80;100.00;98676.41;10435994;27;97493;-94
2023/12/01 12:35:45;;;;;;;31.23;16.30;;;2.90;99.90;;;0.80;100.00;98671.16;10475263;27;96626;-93
2023/12/01 12:40:48;;;;;;;32.00;15.60;;;2.90;99.90;;;0.82;100.00;98665.78;10450438;27;96546;-93
2023/12/01 12:45:53;;;;;;;33.23;16.10;;;2.90;99.90;;;0.84;100.00;98656.03;10471683;27;97206;-91
2023/12/01 12:50:58;;;;;;;22.80;10.70;;;3.00;99.90;;;0.85;100.00;98667.31;10466805;27;96454;-92
2023/12/01 12:56:13;;;;;;;20.60;10.27;;;3.00;99.90;;;0.84;100.00;98652.56;10459329;27;97638;-89
2023/12/01 13:01:18;;;;;;;19.13;8.40;;;2.90;99.90;;;0.86;100.00;98656.69;10471357;27;98071;-92
2023/12/01 13:06:22;;;;;;;17.07;8.17;;;3.00;99.90;;;0.86;100.00;98659.31;10478430;27;96501;-92
2023/12/01 13:11:27;;;;;;;19.67;9.07;;;3.00;99.90;;;0.85;100.00;98662.06;10478349;27;96575;-93
2023/12/01 13:16:30;;;;;;;24.37;10.47;;;3.00;99.90;;;0.87;100.00;98652.28;10468292;27;96529;-92
2023/12/01 13:21:35;;;;;;;18.97;8.87;;;3.00;99.90;;;0.87;100.00;98657.50;10466565;27;97719;-92
2023/12/01 13:26:39;;;;;;;24.80;12.10;;;2.90;99.90;;;0.83;100.00;98667.44;10446455;27;97912;-91
2023/12/01 13:31:43;;;;;;;20.13;9.70;;;3.00;99.90;;;0.86;100.00;98661.94;10465276;27;96634;-92
2023/12/01 13:36:48;;;;;;;23.23;10.17;;;2.90;99.90;;;0.86;100.00;98671.56;10464276;27;96500;-92
2023/12/01 13:41:53;;;;;;;19.70;9.13;;;2.90;99.90;;;0.83;100.00;98667.44;10477180;27;96842;-92
2023/12/01 13:46:59;;;;;;;31.73;11.90;;;2.90;99.90;;;0.85;100.00;98675.16;10465003;27;96645;-92
2023/12/01 13:52:03;;;;;;;20.37;10.53;;;2.90;99.90;;;0.76;100.00;98690.72;10494571;27;96553;-92
2023/12/01 13:57:07;;;;;;;18.40;9.20;;;2.80;99.90;;;0.73;100.00;98685.78;10471699;27;96671;-93
2023/12/01 14:02:11;;;;;;;16.70;7.77;;;2.80;99.90;;;0.72;100.00;98686.75;10484736;27;96606;-91
2023/12/01 14:07:15;;;;;;;15.23;8.57;;;2.80;99.90;;;0.72;100.00;98702.44;10466399;27;96641;-93
2023/12/01 14:12:19;;;;;;;14.33;6.80;;;2.80;99.90;;;0.70;100.00;98699.13;10495171;27;96486;-92
2023/12/01 14:17:23;;;;;;;28.73;10.23;;;2.80;99.90;;;0.71;100.00;98702.56;10475863;27;96640;-93
2023/12/01 14:22:26;;;;;;;32.17;12.47;;;2.80;99.90;;;0.69;100.00;98687.03;10482246;27;96457;-93
2023/12/01 14:27:30;;;;;;;26.43;11.53;;;2.80;99.90;;;0.68;100.00;98688.00;10454102;27;96553;-92
2023/12/01 14:32:36;;;;;;;27.63;12.27;;;2.80;99.90;;;0.67;100.00;98688.16;10469750;27;96560;-91
2023/12/01 14:37:40;;;;;;;29.53;13.53;;;2.80;99.90;;;0.62;100.00;98691.19;10461229;27;96535;-91
2023/12/01 14:42:44;;;;;;;42.47;18.70;;;2.80;99.90;;;0.66;100.00;98696.94;10453874;27;96658;-91
2023/12/01 14:47:48;;;;;;;36.97;16.00;;;2.80;99.90;;;0.63;100.00;98705.88;10468474;27;96721;-90
2023/12/01 14:52:52;;;;;;;29.33;13.77;;;2.70;99.90;;;0.62;100.00;98699.03;10474437;27;96912;-92
2023/12/01 14:57:55;;;;;;;35.07;14.53;;;2.70;99.90;;;0.63;100.00;98695.44;10477534;27;96654;-96
2023/12/01 15:02:59;;;;;;;43.50;13.17;;;2.70;99.90;;;0.63;100.00;98692.81;10472396;27;97188;-96
2023/12/01 15:08:04;;;;;;;34.93;15.57;;;2.70;99.90;;;0.60;100.00;98680.06;10470211;27;96648;-95
2023/12/01 15:13:08;;;;;;;25.43;10.63;;;2.70;99.90;;;0.60;100.00;98682.66;10472958;27;96542;-94
2023/12/01 15:18:12;;;;;;;17.90;9.43;;;2.70;99.90;;;0.60;100.00;98694.88;10479321;27;96941;-93
2023/12/01 15:23:16;;;;;;;31.37;14.17;;;2.70;99.90;;;0.62;100.00;98706.88;10466615;27;96535;-91
2023/12/01 15:28:20;;;;;;;27.73;13.27;;;2.70;99.90;;;0.55;100.00;98682.25;10432663;27;96413;-95
2023/12/01 15:33:24;;;;;;;26.83;13.50;;;2.70;99.90;;;0.60;100.00;98694.88;10474581;27;97621;-94
2023/12/01 15:38:28;;;;;;;23.60;11.30;;;2.70;99.90;;;0.61;100.00;98684.31;10482510;27;96411;-92
2023/12/01 15:43:33;;;;;;;26.73;12.77;;;2.60;99.90;;;0.59;100.00;98675.75;10465780;27;96853;-92
2023/12/01 15:48:38;;;;;;;17.27;8.87;;;2.70;99.90;;;0.58;100.00;98666.28;10466721;27;96747;-92
2023/12/01 15:53:47;;;;;;;27.07;13.83;;;2.60;99.90;;;0.59;100.00;98662.69;10447884;27;96425;-92
2023/12/01 15:58:55;;;;;;;32.40;14.67;;;2.70;99.90;;;0.59;100.00;98669.72;10472741;27;96531;-92
2023/12/01 16:04:00;;;;;;;40.20;18.03;;;2.70;99.90;;;0.61;100.00;98675.66;10456591;27;97273;-91
2023/12/01 16:09:04;;;;;;;41.07;17.33;;;2.60;99.90;;;0.57;100.00;98662.03;10506699;27;97626;-91
2023/12/01 16:14:08;;;;;;;38.37;16.97;;;2.70;99.90;;;0.55;100.00;98666.56;10478139;27;96589;-91
2023/12/01 16:19:12;;;;;;;22.30;12.13;;;2.60;99.90;;;0.58;100.00;98681.13;10505700;27;96519;-91
2023/12/01 16:24:16;;;;;;;26.97;12.03;;;2.60;99.90;;;0.57;100.00;98675.09;10486836;27;96433;-91
2023/12/01 16:29:27;;;;;;;;;;;2.60;99.90;;;0.57;100.00;98661.19;10503595;27;96985;-91
2023/12/01 16:34:31;;;;;;;29.30;13.47;;;2.70;99.90;;;0.51;100.00;98665.19;10505656;27;96423;-90
2023/12/01 16:39:34;;;;;;;23.93;10.97;;;2.60;99.90;;;0.50;100.00;98666.16;10449337;27;96888;-91
2023/12/01 16:44:38;;;;;;;23.70;13.33;;;2.60;99.90;;;0.48;100.00;98649.78;10475064;27;96492;-91
2023/12/01 16:49:41;;;;;;;25.90;13.37;;;2.60;99.90;;;0.48;100.00;98658.47;10444129;27;96422;-90
2023/12/01 16:54:45;;;;;;;37.87;17.20;;;2.50;99.90;;;0.47;100.00;98646.34;10476244;27;97783;-90
2023/12/01 16:59:49;;;;;;;51.37;21.80;;;2.50;99.90;;;0.46;100.00;98649.13;10500733;27;97774;-91
2023/12/01 17:04:53;;;;;;;50.07;22.13;;;2.50;99.90;;;0.47;100.00;98648.16;10477181;27;96651;-91
2023/12/01 17:09:56;;;;;;;67.70;27.27;;;2.50;99.90;;;0.45;100.00;98650.91;10465775;27;96576;-91
2023/12/01 17:15:00;;;;;;;58.83;22.20;;;2.50;99.90;;;0.43;100.00;98638.97;10501643;27;96494;-90
2023/12/01 17:20:06;;;;;;;50.93;22.03;;;2.50;99.90;;;0.40;100.00;98662.75;10502495;27;96449;-91
2023/12/01 17:25:09;;;;;;;47.33;21.87;;;2.50;99.90;;;0.38;100.00;98656.84;10466129;27;96486;-90
2023/12/01 17:30:14;;;;;;;50.70;19.43;;;2.50;99.90;;;0.42;100.00;98652.97;10503524;27;97752;-90
2023/12/01 17:35:18;;;;;;;33.83;13.90;;;2.50;99.90;;;0.45;100.00;98661.34;10458146;27;96491;-90
2023/12/01 17:40:21;;;;;;;33.23;14.57;;;2.50;99.90;;;0.47;100.00;98658.59;10468262;27;98682;-90
2023/12/01 17:45:25;;;;;;;48.43;18.23;;;2.50;99.90;;;0.50;100.00;98647.88;10474439;27;96518;-90
2023/12/01 17:50:29;;;;;;;59.87;25.80;;;2.50;99.90;;;0.50;100.00;98681.84;10490682;27;97859;-90
2023/12/01 17:55:32;;;;;;;49.93;22.77;;;2.50;99.90;;;0.50;100.00;98638.25;10473744;27;96758;-90
2023/12/01 18:00:37;;;;;;;91.73;34.20;;;2.50;99.90;;;0.52;100.00;98635.47;10479225;27;96991;-89
2023/12/01 18:05:40;;;;;;;33.77;16.57;;;2.50;99.90;;;0.49;100.00;98646.22;10461420;27;97467;-89
2023/12/01 18:10:44;;;;;;;47.43;20.27;;;2.50;99.90;;;0.51;100.00;98633.84;10480090;27;98560;-89
2023/12/01 18:15:48;;;;;;;33.13;14.80;;;2.50;99.90;;;0.50;100.00;98626.97;10495418;27;97331;-90
2023/12/01 18:20:52;;;;;;;39.53;16.17;;;2.50;99.90;;;0.48;100.00;98624.50;10475114;27;96524;-91
2023/12/01 18:25:57;;;;;;;28.53;13.93;;;2.50;99.90;;;0.46;100.00;98626.41;10513619;27;97983;-91
2023/12/01 18:31:01;;;;;;;28.43;13.60;;;2.50;99.90;;;0.50;100.00;98632.19;10482628;27;96486;-88
2023/12/01 18:36:06;;;;;;;16.33;8.73;;;2.50;99.90;;;0.48;100.00;98634.09;10476423;27;96455;-88
2023/12/01 18:41:09;;;;;;;12.83;7.27;;;2.50;99.90;;;0.50;100.00;98645.25;10459024;27;97849;-88
2023/12/01 18:46:13;;;;;;;14.33;6.37;;;2.40;99.90;;;0.52;100.00;98631.06;10496266;27;97362;-87
2023/12/01 18:51:20;;;;;;;19.27;8.17;;;2.50;99.90;;;0.55;100.00;98621.31;10471504;27;96584;-87
2023/12/01 18:56:24;;;;;;;42.83;11.93;;;2.50;99.90;;;0.60;100.00;98611.22;10439031;27;97164;-87
2023/12/01 19:01:27;;;;;;;35.73;11.83;;;2.50;99.90;;;0.65;100.00;98611.63;10466186;27;96472;-86
2023/12/01 19:06:32;;;;;;;28.10;12.03;;;2.60;99.90;;;0.67;100.00;98620.16;10465165;27;96535;-88
2023/12/01 19:11:36;;;;;;;25.63;13.73;;;2.60;99.90;;;0.68;100.00;98619.19;10492288;27;96642;-87
2023/12/01 19:16:40;;;;;;;22.13;12.20;;;2.70;99.90;;;0.67;100.00;98618.38;10447506;27;96639;-86
2023/12/01 19:21:47;;;;;;;18.80;11.47;;;2.70;99.90;;;0.68;100.00;98612.19;10448948;27;96712;-86
2023/12/01 19:26:53;;;;;;;25.23;12.80;;;2.60;99.90;;;0.71;100.00;98617.09;10446887;27;96475;-87
2023/12/01 19:31:57;;;;;;;53.93;22.83;;;2.70;99.90;;;0.72;100.00;98624.00;10469651;27;97245;-86
2023/12/01 19:37:00;;;;;;;106.67;38.30;;;2.70;99.90;;;0.70;100.00;98622.47;10488426;27;97029;-87
2023/12/01 19:42:04;;;;;;;127.63;49.37;;;2.70;99.90;;;0.71;100.00;98629.34;10466104;27;97753;-86
2023/12/01 19:47:09;;;;;;;78.27;28.23;;;2.70;99.90;;;0.66;100.00;98621.97;10464266;27;98668;-86
2023/12/01 19:52:12;;;;;;;93.60;36.47;;;2.70;99.90;;;0.64;100.00;98610.81;10465887;27;96455;-86
2023/12/01 19:57:16;;;;;;;89.20;38.37;;;2.70;99.90;;;0.63;100.00;98613.56;10453454;27;97021;-86
2023/12/01 20:02:20;;;;;;;101.13;42.67;;;2.60;99.90;;;0.62;100.00;98602.28;10455355;27;98372;-86
2023/12/01 20:07:23;;;;;;;92.63;39.97;;;2.60;99.90;;;0.61;100.00;98608.50;10451427;27;96526;-86
2023/12/01 20:12:27;;;;;;;122.93;44.20;;;2.60;99.90;;;0.60;100.00;98609.47;10456563;27;98074;-87
2023/12/01 20:17:31;;;;;;;95.00;38.90;;;2.60;99.90;;;0.62;100.00;98611.94;10485477;27;96431;-85
2023/12/01 20:22:35;;;;;;;98.37;38.73;;;2.60;99.90;;;0.64;100.00;98612.59;10475188;27;98226;-85
2023/12/01 20:27:38;;;;;;;94.33;37.27;;;2.60;99.90;;;0.58;100.00;98585.25;10487008;27;97016;-87
2023/12/01 20:32:42;;;;;;;69.37;30.33;;;2.60;99.90;;;0.62;100.00;98599.69;10462508;27;96482;-86
2023/12/01 20:37:46;;;;;;;40.03;17.43;;;2.60;99.90;;;0.63;100.00;98583.03;10487606;27;96808;-88
2023/12/01 20:42:50;;;;;;;56.40;17.37;;;2.60;99.90;;;0.67;100.00;98581.78;10468076;27;97653;-87
2023/12/01 20:47:53;;;;;;;89.37;31.97;;;2.60;99.90;;;0.70;100.00;98585.88;10473513;27;96775;-87
2023/12/01 20:52:59;;;;;;;91.27;35.53;;;2.70;99.90;;;0.73;100.00;98581.19;10463062;27;97089;-87